Time,TemperatureF,DewpointF,PressureIn,WindDirection,WindDirectionDegrees,WindSpeedMPH,WindSpeedGustMPH,Humidity,HourlyPrecipIn,Conditions,Clouds,dailyrainin,SoftwareType,DateUTC
2013-07-13 00:01:00,67.0,39.0,29.37,SSE,153,0.0,0.0,36,0.00,,,0.00,,2013-07-13 08:01:00,
2013-07-13 00:11:00,67.0,39.0,29.37,SSE,153,0.0,0.0,36,0.00,,,0.00,,2013-07-13 08:11:00,
2013-07-13 00:22:00,66.0,40.0,29.37,SSE,153,0.0,0.0,38,0.00,,,0.00,,2013-07-13 08:22:00,
2013-07-13 00:33:00,65.0,38.0,29.37,SSE,153,0.0,0.0,37,0.00,,,0.00,,2013-07-13 08:33:00,
2013-07-13 00:43:00,65.0,39.0,29.37,SSE,153,0.0,0.0,39,0.00,,,0.00,,2013-07-13 08:43:00,
2013-07-13 00:52:00,65.0,39.0,29.37,SSE,153,0.0,0.0,39,0.00,,,0.00,,2013-07-13 08:52:00,
2013-07-13 01:02:00,64.0,39.0,29.38,SSE,153,0.0,0.0,40,0.00,,,0.00,,2013-07-13 09:02:00,
2013-07-13 01:11:00,64.0,40.0,29.38,SSE,153,0.0,0.0,42,0.00,,,0.00,,2013-07-13 09:11:00,
2013-07-13 01:22:00,64.0,40.0,29.38,SSE,153,0.0,0.0,42,0.00,,,0.00,,2013-07-13 09:22:00,
2013-07-13 01:32:00,63.0,39.0,29.38,SSE,153,0.0,0.0,41,0.00,,,0.00,,2013-07-13 09:32:00,
2013-07-13 01:42:00,63.0,40.0,29.38,SSE,153,0.0,0.0,43,0.00,,,0.00,,2013-07-13 09:42:00,
2013-07-13 01:53:00,63.0,40.0,29.38,SSE,153,0.0,0.0,43,0.00,,,0.00,,2013-07-13 09:53:00,
2013-07-13 02:01:00,62.0,39.0,29.38,SSE,153,0.0,0.0,43,0.00,,,0.00,,2013-07-13 10:01:00,
2013-07-13 02:11:00,62.0,39.0,29.38,SSE,153,0.0,0.0,43,0.00,,,0.00,,2013-07-13 10:11:00,
2013-07-13 02:22:00,62.0,39.0,29.38,SSE,153,0.0,0.0,43,0.00,,,0.00,,2013-07-13 10:22:00,
2013-07-13 02:32:00,62.0,40.0,29.38,SSE,153,0.0,0.0,44,0.00,,,0.00,,2013-07-13 10:32:00,
2013-07-13 02:42:00,61.0,40.0,29.38,SSE,153,0.0,0.0,45,0.00,,,0.00,,2013-07-13 10:42:00,
2013-07-13 02:52:00,61.0,40.0,29.38,SSE,153,0.0,0.0,45,0.00,,,0.00,,2013-07-13 10:52:00,
2013-07-13 03:02:00,61.0,40.0,29.38,SSE,153,0.0,0.0,46,0.00,,,0.00,,2013-07-13 11:02:00,
2013-07-13 03:11:00,61.0,40.0,29.38,SSE,153,0.0,0.0,46,0.00,,,0.00,,2013-07-13 11:11:00,
2013-07-13 03:21:00,61.0,40.0,29.38,SSE,153,0.0,0.0,46,0.00,,,0.00,,2013-07-13 11:21:00,
2013-07-13 03:32:00,60.0,41.0,29.38,SSE,153,0.0,0.0,49,0.00,,,0.00,,2013-07-13 11:32:00,
2013-07-13 03:42:00,60.0,40.0,29.39,SSE,153,0.0,0.0,48,0.00,,,0.00,,2013-07-13 11:42:00,
2013-07-13 03:52:00,60.0,40.0,29.39,SSE,153,0.0,0.0,48,0.00,,,0.00,,2013-07-13 11:52:00,
2013-07-13 04:02:00,59.0,40.0,29.38,SSE,153,0.0,0.0,49,0.00,,,0.00,,2013-07-13 12:02:00,
2013-07-13 04:12:00,59.0,40.0,29.38,SSE,153,0.0,0.0,49,0.00,,,0.00,,2013-07-13 12:12:00,
2013-07-13 04:22:00,59.0,40.0,29.38,SSE,153,0.0,0.0,50,0.00,,,0.00,,2013-07-13 12:22:00,
2013-07-13 04:32:00,59.0,41.0,29.39,SSE,153,0.0,0.0,51,0.00,,,0.00,,2013-07-13 12:32:00,
2013-07-13 04:43:00,58.0,40.0,29.39,SSE,153,0.0,0.0,52,0.00,,,0.00,,2013-07-13 12:43:00,
2013-07-13 04:52:00,58.0,40.0,29.39,SSE,153,0.0,0.0,52,0.00,,,0.00,,2013-07-13 12:52:00,
2013-07-13 05:01:00,58.0,40.0,29.39,SSE,153,0.0,0.0,51,0.00,,,0.00,,2013-07-13 13:01:00,
2013-07-13 05:11:00,58.0,40.0,29.39,SSE,153,0.0,0.0,51,0.00,,,0.00,,2013-07-13 13:11:00,
2013-07-13 05:22:00,58.0,40.0,29.39,SSE,153,0.0,0.0,52,0.00,,,0.00,,2013-07-13 13:22:00,
2013-07-13 05:43:00,57.0,41.0,29.39,SSE,153,0.0,0.0,54,0.00,,,0.00,,2013-07-13 13:43:00,
2013-07-13 06:22:00,57.0,43.0,29.40,ENE,62,0.0,0.0,59,0.00,,,0.00,,2013-07-13 14:22:00,
2013-07-13 06:32:00,57.0,43.0,29.39,ENE,62,0.0,0.0,59,0.00,,,0.00,,2013-07-13 14:32:00,
2013-07-13 07:02:00,57.0,45.0,29.39,NE,48,0.0,0.0,63,0.00,,,0.00,,2013-07-13 15:02:00,
2013-07-13 07:12:00,57.0,45.0,29.40,NE,48,0.0,0.0,63,0.00,,,0.00,,2013-07-13 15:12:00,
2013-07-13 07:22:00,57.0,45.0,29.40,NE,48,0.0,0.0,63,0.00,,,0.00,,2013-07-13 15:22:00,
2013-07-13 07:33:00,56.0,44.0,29.40,NE,48,0.0,0.0,63,0.00,,,0.00,,2013-07-13 15:33:00,
2013-07-13 07:53:00,56.0,44.0,29.40,NE,48,0.0,0.0,65,0.00,,,0.00,,2013-07-13 15:53:00,
2013-07-13 08:01:00,56.0,44.0,29.40,NE,48,0.0,0.0,64,0.00,,,0.00,,2013-07-13 16:01:00,
2013-07-13 08:11:00,56.0,44.0,29.40,NE,48,0.0,0.0,64,0.00,,,0.00,,2013-07-13 16:11:00,
2013-07-13 08:22:00,57.0,45.0,29.40,NE,48,0.0,0.0,65,0.00,,,0.00,,2013-07-13 16:22:00,
2013-07-13 08:32:00,58.0,45.0,29.40,NE,48,0.0,0.0,61,0.00,,,0.00,,2013-07-13 16:32:00,
2013-07-13 08:43:00,59.0,46.0,29.40,West,274,0.0,0.0,61,0.00,,,0.00,,2013-07-13 16:43:00,
2013-07-13 08:53:00,59.0,46.0,29.40,West,274,0.0,0.0,61,0.00,,,0.00,,2013-07-13 16:53:00,
2013-07-13 09:01:00,60.0,46.0,29.40,West,274,0.0,0.0,59,0.00,,,0.00,,2013-07-13 17:01:00,
2013-07-13 09:11:00,60.0,46.0,29.40,West,274,0.0,0.0,59,0.00,,,0.00,,2013-07-13 17:11:00,
2013-07-13 09:22:00,62.0,45.0,29.40,West,274,0.0,0.0,54,0.00,,,0.00,,2013-07-13 17:22:00,
2013-07-13 09:33:00,64.0,44.0,29.40,SW,220,0.0,0.0,48,0.00,,,0.00,,2013-07-13 17:33:00,
2013-07-13 09:42:00,66.0,45.0,29.40,SW,220,0.0,0.0,46,0.00,,,0.00,,2013-07-13 17:42:00,
2013-07-13 09:52:00,66.0,45.0,29.40,SW,220,0.0,0.0,46,0.00,,,0.00,,2013-07-13 17:52:00,
2013-07-13 10:01:00,69.0,44.0,29.40,SW,220,0.0,0.0,41,0.00,,,0.00,,2013-07-13 18:01:00,
2013-07-13 10:11:00,69.0,44.0,29.40,SW,220,0.0,0.0,41,0.00,,,0.00,,2013-07-13 18:11:00,
2013-07-13 10:21:00,70.0,42.0,29.40,SW,220,0.0,0.0,36,0.00,,,0.00,,2013-07-13 18:21:00,
2013-07-13 10:32:00,70.0,43.0,29.40,SW,220,0.0,0.0,37,0.00,,,0.00,,2013-07-13 18:32:00,
2013-07-13 10:43:00,70.0,40.0,29.40,WNW,291,0.0,0.0,33,0.00,,,0.00,,2013-07-13 18:43:00,
2013-07-13 10:52:00,70.0,40.0,29.40,WNW,291,0.0,0.0,33,0.00,,,0.00,,2013-07-13 18:52:00,
2013-07-13 11:02:00,71.0,42.0,29.40,WNW,291,0.0,0.0,35,0.00,,,0.00,,2013-07-13 19:02:00,
2013-07-13 11:11:00,71.0,42.0,29.40,WNW,291,0.0,0.0,35,0.00,,,0.00,,2013-07-13 19:11:00,
2013-07-13 11:22:00,71.0,42.0,29.40,WNW,291,0.0,0.0,35,0.00,,,0.00,,2013-07-13 19:22:00,
2013-07-13 11:32:00,71.0,40.0,29.40,WNW,291,0.0,0.0,33,0.00,,,0.00,,2013-07-13 19:32:00,
2013-07-13 11:44:00,71.0,43.0,29.40,WNW,291,0.0,0.0,37,0.00,,,0.00,,2013-07-13 19:44:00,
2013-07-13 11:52:00,71.0,43.0,29.40,WNW,291,0.0,0.0,37,0.00,,,0.00,,2013-07-13 19:52:00,
2013-07-13 12:01:00,72.0,41.0,29.40,WNW,291,0.0,0.0,33,0.00,,,0.00,,2013-07-13 20:01:00,
2013-07-13 12:11:00,72.0,41.0,29.40,WNW,291,0.0,0.0,33,0.00,,,0.00,,2013-07-13 20:11:00,
2013-07-13 12:22:00,72.0,41.0,29.40,WNW,291,0.0,0.0,33,0.00,,,0.00,,2013-07-13 20:22:00,
2013-07-13 12:33:00,73.0,41.0,29.39,WNW,291,0.0,0.0,31,0.00,,,0.00,,2013-07-13 20:33:00,
2013-07-13 12:42:00,73.0,40.0,29.39,WNW,291,0.0,0.0,30,0.00,,,0.00,,2013-07-13 20:42:00,
2013-07-13 12:52:00,73.0,40.0,29.39,WNW,291,0.0,0.0,30,0.00,,,0.00,,2013-07-13 20:52:00,
2013-07-13 13:02:00,74.0,41.0,29.39,NNW,336,0.0,0.0,31,0.00,,,0.00,,2013-07-13 21:02:00,
2013-07-13 13:11:00,77.0,43.0,29.39,ESE,103,0.0,0.0,30,0.00,,,0.00,,2013-07-13 21:11:00,
2013-07-13 13:22:00,77.0,43.0,29.39,ESE,103,0.0,0.0,30,0.00,,,0.00,,2013-07-13 21:22:00,
2013-07-13 13:32:00,79.0,43.0,29.39,ESE,103,0.0,0.0,28,0.00,,,0.00,,2013-07-13 21:32:00,
2013-07-13 13:42:00,81.0,46.0,29.39,West,264,0.0,0.0,29,0.00,,,0.00,,2013-07-13 21:42:00,
2013-07-13 13:53:00,81.0,46.0,29.39,West,264,0.0,0.0,29,0.00,,,0.00,,2013-07-13 21:53:00,
2013-07-13 14:01:00,83.0,46.0,29.39,WSW,245,0.0,0.0,27,0.00,,,0.00,,2013-07-13 22:01:00,
2013-07-13 14:11:00,83.0,46.0,29.39,WSW,245,0.0,0.0,27,0.00,,,0.00,,2013-07-13 22:11:00,
2013-07-13 14:21:00,84.0,45.0,29.38,WSW,245,0.0,0.0,26,0.00,,,0.00,,2013-07-13 22:21:00,
2013-07-13 14:32:00,84.0,43.0,29.38,WSW,243,0.0,0.0,24,0.00,,,0.00,,2013-07-13 22:32:00,
2013-07-13 14:43:00,85.0,44.0,29.38,ESE,120,0.0,0.0,24,0.00,,,0.00,,2013-07-13 22:43:00,
2013-07-13 14:53:00,85.0,44.0,29.38,ESE,120,0.0,0.0,24,0.00,,,0.00,,2013-07-13 22:53:00,
2013-07-13 15:01:00,86.0,45.0,29.38,SSE,155,0.0,0.0,24,0.00,,,0.00,,2013-07-13 23:01:00,
2013-07-13 15:11:00,86.0,48.0,29.38,West,273,0.0,0.0,27,0.00,,,0.00,,2013-07-13 23:11:00,
2013-07-13 15:22:00,86.0,48.0,29.38,West,273,0.0,0.0,27,0.00,,,0.00,,2013-07-13 23:22:00,
2013-07-13 15:32:00,84.0,42.0,29.38,West,273,0.0,0.0,23,0.00,,,0.00,,2013-07-13 23:32:00,
2013-07-13 15:42:00,83.0,42.0,29.37,South,170,0.0,0.0,24,0.00,,,0.00,,2013-07-13 23:42:00,
2013-07-13 15:53:00,83.0,42.0,29.37,South,170,0.0,0.0,24,0.00,,,0.00,,2013-07-13 23:53:00,
2013-07-13 16:01:00,82.0,42.0,29.38,West,269,0.0,0.0,24,0.00,,,0.00,,2013-07-14 00:01:00,
2013-07-13 16:11:00,82.0,42.0,29.38,West,269,0.0,0.0,24,0.00,,,0.00,,2013-07-14 00:11:00,
2013-07-13 16:21:00,81.0,41.0,29.38,SSE,150,0.0,0.0,24,0.00,,,0.00,,2013-07-14 00:21:00,
2013-07-13 16:33:00,80.0,41.0,29.38,SW,215,0.0,0.0,25,0.00,,,0.00,,2013-07-14 00:33:00,
2013-07-13 16:42:00,80.0,41.0,29.37,NNE,14,0.0,0.0,25,0.00,,,0.00,,2013-07-14 00:42:00,
2013-07-13 16:52:00,80.0,41.0,29.37,NNE,14,0.0,0.0,25,0.00,,,0.00,,2013-07-14 00:52:00,
2013-07-13 17:01:00,80.0,42.0,29.37,SW,231,0.0,0.0,26,0.00,,,0.00,,2013-07-14 01:01:00,
2013-07-13 17:11:00,80.0,41.0,29.37,West,276,0.0,0.0,25,0.00,,,0.00,,2013-07-14 01:11:00,
2013-07-13 17:22:00,80.0,41.0,29.37,West,276,0.0,0.0,25,0.00,,,0.00,,2013-07-14 01:22:00,
2013-07-13 17:32:00,80.0,40.0,29.37,WNW,286,0.0,0.0,24,0.00,,,0.00,,2013-07-14 01:32:00,
2013-07-13 17:43:00,80.0,41.0,29.37,NE,42,0.0,0.0,25,0.00,,,0.00,,2013-07-14 01:43:00,
2013-07-13 17:52:00,80.0,41.0,29.37,NE,42,0.0,0.0,25,0.00,,,0.00,,2013-07-14 01:52:00,
2013-07-13 18:01:00,79.0,42.0,29.37,WSW,243,0.0,0.0,27,0.00,,,0.00,,2013-07-14 02:01:00,
2013-07-13 18:11:00,80.0,42.0,29.37,WSW,250,0.0,0.0,26,0.00,,,0.00,,2013-07-14 02:11:00,
2013-07-13 18:22:00,80.0,42.0,29.37,WSW,250,0.0,0.0,26,0.00,,,0.00,,2013-07-14 02:22:00,
2013-07-13 18:32:00,80.0,42.0,29.37,WSW,250,0.0,0.0,26,0.00,,,0.00,,2013-07-14 02:32:00,
2013-07-13 18:42:00,79.0,42.0,29.36,West,271,0.0,0.0,27,0.00,,,0.00,,2013-07-14 02:42:00,
2013-07-13 18:53:00,79.0,42.0,29.36,West,271,0.0,0.0,27,0.00,,,0.00,,2013-07-14 02:53:00,
2013-07-13 19:01:00,79.0,40.0,29.36,West,271,0.0,0.0,25,0.00,,,0.00,,2013-07-14 03:01:00,
2013-07-13 19:11:00,79.0,42.0,29.37,West,261,0.0,0.0,27,0.00,,,0.00,,2013-07-14 03:11:00,
2013-07-13 19:22:00,79.0,42.0,29.37,West,261,0.0,0.0,27,0.00,,,0.00,,2013-07-14 03:22:00,
2013-07-13 19:32:00,79.0,41.0,29.37,West,261,0.0,0.0,26,0.00,,,0.00,,2013-07-14 03:32:00,
2013-07-13 19:43:00,79.0,41.0,29.37,West,261,0.0,0.0,26,0.00,,,0.00,,2013-07-14 03:43:00,
2013-07-13 19:53:00,79.0,41.0,29.37,West,261,0.0,0.0,26,0.00,,,0.00,,2013-07-14 03:53:00,
2013-07-13 20:02:00,79.0,42.0,29.37,West,261,0.0,0.0,27,0.00,,,0.00,,2013-07-14 04:02:00,
2013-07-13 20:11:00,79.0,40.0,29.37,West,261,0.0,0.0,25,0.00,,,0.00,,2013-07-14 04:11:00,
2013-07-13 20:22:00,79.0,40.0,29.37,West,261,0.0,0.0,25,0.00,,,0.00,,2013-07-14 04:22:00,
2013-07-13 20:32:00,79.0,41.0,29.37,West,261,0.0,0.0,26,0.00,,,0.00,,2013-07-14 04:32:00,
2013-07-13 20:42:00,78.0,40.0,29.37,West,261,0.0,0.0,26,0.00,,,0.00,,2013-07-14 04:42:00,
2013-07-13 20:53:00,78.0,40.0,29.37,West,261,0.0,0.0,26,0.00,,,0.00,,2013-07-14 04:53:00,
2013-07-13 21:02:00,78.0,40.0,29.37,NNE,19,0.0,0.0,26,0.00,,,0.00,,2013-07-14 05:02:00,
2013-07-13 21:11:00,78.0,40.0,29.37,NNE,19,0.0,0.0,26,0.00,,,0.00,,2013-07-14 05:11:00,
2013-07-13 21:22:00,78.0,40.0,29.37,NNE,19,0.0,0.0,26,0.00,,,0.00,,2013-07-14 05:22:00,
2013-07-13 21:32:00,78.0,41.0,29.37,NNE,19,0.0,0.0,27,0.00,,,0.00,,2013-07-14 05:32:00,
2013-07-13 21:43:00,77.0,39.0,29.37,NNE,19,0.0,0.0,26,0.00,,,0.00,,2013-07-14 05:43:00,
2013-07-13 21:53:00,77.0,39.0,29.37,NNE,19,0.0,0.0,26,0.00,,,0.00,,2013-07-14 05:53:00,
2013-07-13 22:01:00,77.0,40.0,29.37,NNE,19,0.0,0.0,27,0.00,,,0.00,,2013-07-14 06:01:00,
2013-07-13 22:11:00,76.0,40.0,29.38,NNE,19,0.0,0.0,27,0.00,,,0.00,,2013-07-14 06:11:00,
2013-07-13 22:22:00,76.0,40.0,29.38,NNE,19,0.0,0.0,27,0.00,,,0.00,,2013-07-14 06:22:00,
2013-07-13 22:32:00,76.0,40.0,29.38,NNE,19,0.0,0.0,27,0.00,,,0.00,,2013-07-14 06:32:00,
2013-07-13 22:42:00,75.0,39.0,29.38,NNE,19,0.0,0.0,27,0.00,,,0.00,,2013-07-14 06:42:00,
2013-07-13 22:53:00,75.0,39.0,29.38,NNE,19,0.0,0.0,27,0.00,,,0.00,,2013-07-14 06:53:00,
2013-07-13 23:02:00,75.0,39.0,29.38,NNE,19,0.0,0.0,27,0.00,,,0.00,,2013-07-14 07:02:00,
2013-07-13 23:11:00,75.0,39.0,29.38,NNE,19,0.0,0.0,27,0.00,,,0.00,,2013-07-14 07:11:00,
2013-07-13 23:22:00,74.0,38.0,29.39,NNE,19,0.0,0.0,27,0.00,,,0.00,,2013-07-14 07:22:00,
2013-07-13 23:32:00,74.0,38.0,29.39,NNE,19,0.0,0.0,27,0.00,,,0.00,,2013-07-14 07:32:00,
2013-07-13 23:42:00,73.0,41.0,29.39,NNE,19,0.0,0.0,32,0.00,,,0.00,,2013-07-14 07:42:00,
2013-07-13 23:53:00,73.0,41.0,29.39,NNE,19,0.0,0.0,32,0.00,,,0.00,,2013-07-14 07:53:00,